createdAt,value
2022-10-30T00:03:26.021Z,13.58
2022-10-30T00:08:47.841Z,13.66
2022-10-30T00:14:09.780Z,13.63
2022-10-30T00:19:31.618Z,13.68
2022-10-30T00:24:53.481Z,13.61
2022-10-30T00:30:15.443Z,13.71
2022-10-30T00:35:37.331Z,13.64
2022-10-30T00:40:59.183Z,13.73
2022-10-30T00:46:31.134Z,13.73
2022-10-30T00:51:54.782Z,13.61
2022-10-30T00:57:16.938Z,13.55
2022-10-30T01:02:40.381Z,13.68
2022-10-30T01:08:02.542Z,13.60
2022-10-30T01:13:25.260Z,13.68
2022-10-30T01:19:25.757Z,13.67
2022-10-30T01:24:56.564Z,13.75
2022-10-30T01:30:39.988Z,13.79
2022-10-30T01:36:27.895Z,13.78
2022-10-30T01:41:49.694Z,13.80
2022-10-30T01:47:22.869Z,13.75
2022-10-30T01:53:12.994Z,13.76
2022-10-30T01:58:49.195Z,13.71
2022-10-30T02:04:13.253Z,13.66
2022-10-30T02:09:35.573Z,13.71
2022-10-30T02:15:00.224Z,13.75
2022-10-30T02:20:23.191Z,13.77
2022-10-30T02:25:45.902Z,13.76
2022-10-30T02:31:07.746Z,13.82
2022-10-30T02:36:29.768Z,13.84
2022-10-30T02:41:51.545Z,13.89
2022-10-30T02:47:13.340Z,13.85
2022-10-30T02:52:35.223Z,13.88
2022-10-30T02:57:57.044Z,13.82
2022-10-30T03:03:23.007Z,13.84
2022-10-30T03:08:46.341Z,13.80
2022-10-30T03:14:08.209Z,13.73
2022-10-30T03:19:29.980Z,13.71
2022-10-30T03:24:51.783Z,13.62
2022-10-30T03:30:13.683Z,13.65
2022-10-30T03:35:36.460Z,13.59
2022-10-30T03:40:58.649Z,13.59
2022-10-30T03:46:20.436Z,13.61
2022-10-30T03:51:42.292Z,13.57
2022-10-30T03:57:04.234Z,13.62
2022-10-30T04:02:26.058Z,13.63
2022-10-30T04:07:48.081Z,13.57
2022-10-30T04:13:11.833Z,13.48
2022-10-30T04:18:33.664Z,13.50
2022-10-30T04:23:55.489Z,13.51
2022-10-30T04:29:17.360Z,13.38
2022-10-30T04:34:39.353Z,13.35
2022-10-30T04:40:01.194Z,13.29
2022-10-30T04:45:23.025Z,13.30
2022-10-30T04:50:45.262Z,13.32
2022-10-30T04:56:07.448Z,13.32
2022-10-30T05:01:29.383Z,13.44
2022-10-30T05:06:51.278Z,13.48
2022-10-30T05:12:13.180Z,13.61
2022-10-30T05:17:34.979Z,13.66
2022-10-30T05:22:58.580Z,13.63
2022-10-30T05:28:20.450Z,13.70
2022-10-30T05:33:42.354Z,13.70
2022-10-30T05:39:04.213Z,13.74
2022-10-30T05:44:47.426Z,13.76
2022-10-30T05:50:08.585Z,13.67
2022-10-30T05:55:30.790Z,13.66
2022-10-30T06:00:53.028Z,13.60
2022-10-30T06:06:14.844Z,13.75
2022-10-30T06:11:36.683Z,13.79
2022-10-30T06:16:58.551Z,13.86
2022-10-30T06:22:20.393Z,14.03
2022-10-30T06:27:43.597Z,14.22
2022-10-30T06:33:05.905Z,14.32
2022-10-30T06:38:27.696Z,14.48
2022-10-30T06:43:49.513Z,14.66
2022-10-30T06:49:12.199Z,14.89
2022-10-30T06:54:34.152Z,14.96
2022-10-30T06:59:56.103Z,14.95
2022-10-30T07:05:17.918Z,15.26
2022-10-30T07:10:40.163Z,15.43
2022-10-30T07:16:01.982Z,15.39
2022-10-30T07:21:25.949Z,15.73
2022-10-30T07:26:47.762Z,15.88
2022-10-30T07:32:12.688Z,15.78
2022-10-30T07:37:34.505Z,15.78
2022-10-30T07:42:57.992Z,16.11
2022-10-30T07:48:20.057Z,16.18
2022-10-30T07:53:41.919Z,16.32
2022-10-30T07:59:03.741Z,16.28
2022-10-30T08:04:25.567Z,16.52
2022-10-30T08:09:47.382Z,16.76
2022-10-30T08:15:09.803Z,17.16
2022-10-30T08:20:31.614Z,17.34
2022-10-30T08:25:53.471Z,18.64
2022-10-30T08:31:15.299Z,18.75
2022-10-30T08:36:37.115Z,18.35
2022-10-30T08:41:59.291Z,18.22
2022-10-30T08:47:21.114Z,18.13
2022-10-30T08:52:42.981Z,17.78
2022-10-30T08:58:05.005Z,17.40
2022-10-30T09:03:26.859Z,17.61
2022-10-30T09:08:48.686Z,17.38
2022-10-30T09:14:10.555Z,17.47
2022-10-30T09:19:32.387Z,17.46
2022-10-30T09:24:54.213Z,17.44
2022-10-30T09:30:16.171Z,17.03
2022-10-30T09:35:38.056Z,17.12
2022-10-30T09:41:16.656Z,17.14
2022-10-30T09:47:11.683Z,17.95
2022-10-30T09:52:45.987Z,18.55
2022-10-30T09:58:35.630Z,20.39
2022-10-30T10:04:23.962Z,20.33
2022-10-30T10:09:51.415Z,21.84
2022-10-30T10:15:39.495Z,20.19
2022-10-30T10:21:14.016Z,20.17
2022-10-30T10:27:08.993Z,20.40
2022-10-30T10:32:39.913Z,19.81
2022-10-30T10:38:27.803Z,19.99
2022-10-30T10:43:55.382Z,20.03
2022-10-30T10:49:40.219Z,19.69
2022-10-30T10:55:27.076Z,19.60
2022-10-30T11:00:49.017Z,19.06
2022-10-30T11:06:25.832Z,19.02
2022-10-30T11:11:53.453Z,18.52
2022-10-30T11:17:24.131Z,18.58
2022-10-30T11:22:50.277Z,18.32
2022-10-30T11:28:34.633Z,18.21
2022-10-30T11:33:56.643Z,18.38
2022-10-30T11:39:22.504Z,18.14
2022-10-30T11:44:50.392Z,18.20
2022-10-30T11:50:22.036Z,18.37
2022-10-30T11:55:49.211Z,18.21
2022-10-30T12:01:22.256Z,18.33
2022-10-30T12:06:44.247Z,18.26
2022-10-30T12:12:21.508Z,18.10
2022-10-30T12:17:55.522Z,18.21
2022-10-30T12:23:20.792Z,18.28
2022-10-30T12:28:57.275Z,18.10
2022-10-30T12:34:25.136Z,17.87
2022-10-30T12:40:13.841Z,17.91
2022-10-30T12:45:44.853Z,17.57
2022-10-30T12:51:09.388Z,17.40
2022-10-30T12:56:38.910Z,17.35
2022-10-30T13:02:16.124Z,17.17
2022-10-30T13:07:50.175Z,17.24
2022-10-30T13:13:23.385Z,17.20
2022-10-30T13:18:45.252Z,17.23
2022-10-30T13:24:21.472Z,17.27
2022-10-30T13:30:04.772Z,17.08
2022-10-30T13:35:45.241Z,17.06
2022-10-30T13:41:19.932Z,17.09
2022-10-30T13:47:18.428Z,16.92
2022-10-30T13:52:48.487Z,16.86
2022-10-30T13:58:29.490Z,16.89
2022-10-30T14:04:06.623Z,16.76
2022-10-30T14:09:45.201Z,16.63
2022-10-30T14:15:18.971Z,16.53
2022-10-30T14:20:49.604Z,16.45
2022-10-30T14:26:19.432Z,16.39
2022-10-30T14:31:41.249Z,16.18
2022-10-30T14:37:03.301Z,16.03
2022-10-30T14:42:25.090Z,16.05
2022-10-30T14:47:46.872Z,15.92
2022-10-30T14:53:31.332Z,15.82
2022-10-30T14:59:12.424Z,15.74
2022-10-30T15:04:40.157Z,15.57
2022-10-30T15:10:21.983Z,15.43
2022-10-30T15:15:44.912Z,15.41
2022-10-30T15:21:07.621Z,15.41
2022-10-30T15:26:36.747Z,15.39
2022-10-30T15:32:25.284Z,15.28
2022-10-30T15:38:07.797Z,15.28
2022-10-30T15:43:33.644Z,15.21
2022-10-30T15:48:55.524Z,15.16
2022-10-30T15:54:20.473Z,15.24
2022-10-30T15:59:53.254Z,15.15
2022-10-30T16:05:22.925Z,15.09
2022-10-30T16:10:46.049Z,15.05
2022-10-30T16:16:16.782Z,15.12
2022-10-30T16:21:38.699Z,15.21
2022-10-30T16:27:14.069Z,15.23
2022-10-30T16:32:35.947Z,15.15
2022-10-30T16:37:58.077Z,15.08
2022-10-30T16:43:29.766Z,15.08
2022-10-30T16:48:59.309Z,14.99
2022-10-30T16:54:24.956Z,14.99
2022-10-30T16:59:51.007Z,14.85
2022-10-30T17:05:26.183Z,14.84
2022-10-30T17:10:47.985Z,14.79
2022-10-30T17:16:18.778Z,14.73
2022-10-30T17:21:42.478Z,14.78
2022-10-30T17:27:07.141Z,14.78
2022-10-30T17:32:42.814Z,14.67
2022-10-30T17:38:04.933Z,14.64
2022-10-30T17:43:33.337Z,14.59
2022-10-30T17:48:58.195Z,14.60
2022-10-30T17:54:20.279Z,14.49
2022-10-30T17:59:43.059Z,14.49
2022-10-30T18:05:21.613Z,14.49
2022-10-30T18:10:43.504Z,14.43
2022-10-30T18:16:05.784Z,14.40
2022-10-30T18:21:27.582Z,14.30
2022-10-30T18:26:49.408Z,14.26
2022-10-30T18:32:11.450Z,14.12
2022-10-30T18:37:33.267Z,14.20
2022-10-30T18:42:55.561Z,14.22
2022-10-30T18:48:17.353Z,14.28
2022-10-30T18:53:39.170Z,14.21
2022-10-30T18:59:02.541Z,14.19
2022-10-30T19:04:24.804Z,14.16
2022-10-30T19:09:47.097Z,14.18
2022-10-30T19:15:23.237Z,13.95
2022-10-30T19:21:03.250Z,13.89
2022-10-30T19:26:26.707Z,13.85
2022-10-30T19:31:48.517Z,13.88
2022-10-30T19:37:10.345Z,13.85
2022-10-30T19:42:32.159Z,13.85
2022-10-30T19:47:59.426Z,13.87
2022-10-30T19:53:21.264Z,13.77
2022-10-30T19:58:43.099Z,13.75
2022-10-30T20:04:04.909Z,13.56
2022-10-30T20:09:26.713Z,13.59
2022-10-30T20:14:48.533Z,13.45
2022-10-30T20:20:22.995Z,13.49
2022-10-30T20:25:45.183Z,13.31
2022-10-30T20:31:08.563Z,13.07
2022-10-30T20:36:30.421Z,13.00
2022-10-30T20:41:52.931Z,12.93
2022-10-30T20:47:14.755Z,12.84
2022-10-30T20:52:36.630Z,12.58
2022-10-30T20:57:58.824Z,12.43
2022-10-30T21:03:20.777Z,12.48
2022-10-30T21:08:42.632Z,12.41
2022-10-30T21:14:04.440Z,12.36
2022-10-30T21:19:26.654Z,12.37
2022-10-30T21:24:48.510Z,12.33
2022-10-30T21:30:10.964Z,12.21
2022-10-30T21:35:33.690Z,12.19
2022-10-30T21:40:55.989Z,12.19
2022-10-30T21:46:18.638Z,12.14
2022-10-30T21:51:40.476Z,12.02
2022-10-30T21:57:02.369Z,12.01
2022-10-30T22:02:24.236Z,11.97
2022-10-30T22:07:46.058Z,11.91
2022-10-30T22:13:07.948Z,11.87
2022-10-30T22:18:29.876Z,11.80
2022-10-30T22:23:51.688Z,11.76
2022-10-30T22:29:13.658Z,11.72
2022-10-30T22:34:35.468Z,11.67
2022-10-30T22:39:57.282Z,11.64
2022-10-30T22:45:19.104Z,11.52
2022-10-30T22:50:40.933Z,11.46
2022-10-30T22:56:21.376Z,11.51
2022-10-30T23:01:43.283Z,11.48
2022-10-30T23:07:05.145Z,11.37
2022-10-30T23:12:27.100Z,11.38
2022-10-30T23:17:49.617Z,11.25
2022-10-30T23:23:12.042Z,11.12
2022-10-30T23:28:33.932Z,10.99
2022-10-30T23:33:58.427Z,10.96
2022-10-30T23:39:20.220Z,10.97
2022-10-30T23:44:42.033Z,10.90
2022-10-30T23:50:04.216Z,10.86
2022-10-30T23:55:26.023Z,10.91
